Pierre Regional Airport
KPIR : now visible

Airfield :











YOU CAN JOIN US ON...

 
LOGIN :

Register | Disclaimer

   EN    FR    IT 

 









Legend :    VFR   Marginal VFR   IFR   Intensive IFR   Very Intensive IFR
Visi :
Ceiling :
>= 8 km
>= 3000ft
5 to 8 km
1000 to 3000 ft
1500m to 5 km
500 to 1000 ft
800 to 1500m
200 to 500 ft
< 800m
< 200 ft
Symbols :   Thunderstorms  Fog  Heavy snow  Heavy precipitations  Wind > 20 kt






- Airport Elevation : 1744 ft
- IATA code : PIR


KPIR - Pierre Regional

CURRENT METAR :
  • 241708Z AUTO 25006KT 10SM BKN028 BKN095 02/M04 A3015 RMK AO2 T00171044

EXPIRED METARs :
  • 241653Z AUTO 23007KT 10SM SCT028 SCT110 02/M04 A3014 RMK AO2 SLP221 T00171039
  • 241618Z AUTO 22005KT 10SM SCT029 SCT035 OVC110 00/M04 A3014 RMK AO2 T00001039
  • 241553Z AUTO 22006KT 10SM OVC026 M02/M05 A3014 RMK AO2 SLP225 T10221050
  • 241508Z AUTO 25006KT 10SM BKN027 M04/M06 A3013 RMK AO2 T10391061
  • 241453Z AUTO 23010KT 10SM FEW027 M04/M06 A3013 RMK AO2 SLP221 T10391061 53015

TAF KPIR
Valid from the 24 at 15:00 until the 25 at 12:00 UTC


241517Z 2415/2512 25006KT P6SM BKN027
FM241900 31012G20KT P6SM BKN050
FM250100 30009KT P6SM FEW200
KZMP FIR / North America



MET'MAP, your aeronautical weather chart ! - Copyright ORBIFLY December 2007 - Disclaimer

ORBIFLY MET'MAP TEAM :

Programming & Development : Alexandra Zaïnal
Concept & original design : Baudouin d'Aumeries
Assistance for programming : Marc-Olivier Méhu
Technical & hardware support : Manuel Goepfert

Contact : metmap@orbifly.com




SOURCES & CREDITS :

   NOAA       Earth
Advisory